Time;durP1;ratioP1;P1;durP2;ratioP2;P2;SDS_P1;SDS_P2;PMS_P1;PMS_P2;Temp;Humidity;BMP_temperature;BMP_pressure;BME280_temperature;BME280_humidity;BME280_pressure;Samples;Min_cycle;Max_cycle;Signal;HPM_P1;HPM_P2
2022/05/02 00:01:52;;;;;;;18.90;11.77;;;;;;;;;;4942293;28;20453;-88
2022/05/02 00:04:18;;;;;;;16.87;12.23;;;;;;;;;;4948552;28;20479;-87
2022/05/02 00:06:44;;;;;;;19.97;12.23;;;;;;;;;;4958642;28;20493;-88
2022/05/02 00:09:10;;;;;;;19.00;14.13;;;;;;;;;;4957965;28;20443;-88
2022/05/02 00:11:36;;;;;;;16.30;12.90;;;;;;;;;;4957868;28;20478;-87
2022/05/02 00:14:02;;;;;;;18.37;11.47;;;;;;;;;;4957296;28;20609;-89
2022/05/02 00:16:28;;;;;;;16.90;12.67;;;;;;;;;;4940195;28;20571;-88
2022/05/02 00:18:54;;;;;;;19.17;12.70;;;;;;;;;;4938358;28;20444;-82
2022/05/02 00:21:20;;;;;;;19.83;13.60;;;;;;;;;;4955082;28;20242;-83
2022/05/02 00:23:46;;;;;;;19.13;12.60;;;;;;;;;;4955578;28;20440;-87
2022/05/02 00:26:12;;;;;;;21.27;13.83;;;;;;;;;;4933323;28;20445;-87
2022/05/02 00:28:38;;;;;;;23.23;13.90;;;;;;;;;;4946453;28;20439;-86
2022/05/02 00:31:04;;;;;;;18.63;13.00;;;;;;;;;;4936626;28;21236;-85
2022/05/02 00:33:30;;;;;;;22.77;14.32;;;;;;;;;;4957922;28;20440;-85
2022/05/02 00:35:55;;;;;;;18.58;14.60;;;7.60;99.90;;;;;;4950941;28;20204;-84
2022/05/02 00:38:21;;;;;;;16.50;12.97;;;7.60;99.90;;;;;;4945486;28;20194;-85
2022/05/02 00:40:47;;;;;;;19.33;13.00;;;;;;;;;;4940494;28;20219;-84
2022/05/02 00:43:13;;;;;;;17.08;13.40;;;7.50;99.90;;;;;;4955680;28;20180;-82
2022/05/02 00:45:39;;;;;;;18.20;12.93;;;7.50;99.90;;;;;;4945364;28;20746;-84
2022/05/02 00:48:05;;;;;;;18.80;13.53;;;7.50;99.90;;;;;;4940590;28;20601;-85
2022/05/02 00:50:34;;;;;;;21.55;14.27;;;8.40;99.90;;;;;;4938533;28;20215;-84
2022/05/02 00:53:01;;;;;;;19.98;14.50;;;;;;;;;;4938965;28;20730;-85
2022/05/02 00:55:27;;;;;;;19.17;13.23;;;7.60;99.90;;;;;;4941033;28;20542;-84
2022/05/02 00:57:53;;;;;;;16.15;12.18;;;7.60;99.90;;;;;;4957086;28;20276;-84
2022/05/02 01:00:19;;;;;;;19.90;12.93;;;;;;;;;;4952907;28;20760;-85
2022/05/02 01:02:45;;;;;;;17.90;13.67;;;7.50;99.90;;;;;;4936851;28;20432;-83
2022/05/02 01:05:10;;;;;;;22.80;14.10;;;7.50;99.90;;;;;;4939821;28;20508;-84
2022/05/02 01:07:37;;;;;;;19.80;12.90;;;;;;;;;;4954114;28;20183;-86
2022/05/02 01:10:02;;;;;;;20.00;13.50;;;7.50;99.90;;;;;;4954487;28;20212;-84
2022/05/02 01:12:28;;;;;;;19.37;13.37;;;7.50;99.90;;;;;;4939119;28;20192;-83
2022/05/02 01:14:56;;;;;;;18.00;14.00;;;7.50;99.90;;;;;;4937799;28;20209;-84
2022/05/02 01:17:23;;;;;;;19.25;13.93;;;7.40;99.90;;;;;;4952750;28;20192;-84
2022/05/02 01:19:52;;;;;;;20.95;13.60;;;7.40;99.90;;;;;;4945881;28;20185;-84
2022/05/02 01:22:18;;;;;;;16.63;13.00;;;;;;;;;;4960912;28;20222;-85
2022/05/02 01:24:46;;;;;;;23.08;12.20;;;7.30;99.90;;;;;;4959710;28;20194;-84
2022/05/02 01:27:13;;;;;;;17.10;14.50;;;7.30;99.90;;;;;;4955568;28;20385;-84
2022/05/02 01:29:42;;;;;;;19.70;14.10;;;7.50;99.90;;;;;;4956294;28;20643;-84
2022/05/02 01:32:10;;;;;;;19.15;13.30;;;7.40;99.90;;;;;;4958114;28;20200;-85
2022/05/02 01:34:37;;;;;;;23.88;12.48;;;;;;;;;;4962280;28;20199;-84
2022/05/02 01:37:04;;;;;;;18.88;13.65;;;7.40;99.90;;;;;;4950459;28;20279;-84
2022/05/02 01:39:30;;;;;;;15.93;12.88;;;;;;;;;;4948050;28;20264;-85
2022/05/02 01:42:00;;;;;;;19.63;13.82;;;7.40;99.90;;;;;;4957442;28;20735;-84
2022/05/02 01:44:26;;;;;;;19.10;13.60;;;;;;;;;;4952800;28;20204;-84
2022/05/02 01:46:52;;;;;;;18.67;12.50;;;7.40;99.90;;;;;;4958011;28;20193;-83
2022/05/02 01:49:18;;;;;;;22.20;15.50;;;;;;;;;;4943809;28;20965;-86
2022/05/02 01:51:44;;;;;;;21.10;15.90;;;7.50;99.90;;;;;;4956569;28;20205;-82
2022/05/02 01:54:10;;;;;;;20.90;14.23;;;;;;;;;;4944153;28;20484;-85
2022/05/02 01:56:35;;;;;;;20.80;14.57;;;7.50;99.90;;;;;;4956954;28;20214;-84
2022/05/02 01:59:02;;;;;;;21.40;14.43;;;7.50;99.90;;;;;;4956542;28;20942;-85
2022/05/02 02:01:29;;;;;;;24.33;15.75;;;;;;;;;;4964025;28;20459;-84
2022/05/02 02:03:55;;;;;;;22.58;15.10;;;;;;;;;;4960318;28;20865;-85
2022/05/02 02:06:21;;;;;;;21.95;15.07;;;;;;;;;;4949094;28;20180;-84
2022/05/02 02:08:48;;;;;;;25.40;15.85;;;7.60;99.90;;;;;;4963209;28;20188;-85
2022/05/02 02:11:14;;;;;;;19.80;14.63;;;7.50;99.90;;;;;;4960438;28;20215;-85
2022/05/02 02:13:40;;;;;;;19.40;14.02;;;7.70;99.90;;;;;;4957661;28;20741;-84
2022/05/02 02:16:09;;;;;;;24.97;15.10;;;7.60;99.90;;;;;;4948187;28;20270;-85
2022/05/02 02:18:35;;;;;;;28.23;16.27;;;;;;;;;;4959917;28;20441;-84
2022/05/02 02:21:01;;;;;;;22.80;15.90;;;7.50;99.90;;;;;;4946067;28;20209;-84
2022/05/02 02:23:27;;;;;;;25.23;13.70;;;;;;;;;;4960117;28;20236;-85
2022/05/02 02:25:53;;;;;;;21.23;13.73;;;;;;;;;;4940754;28;20186;-83
2022/05/02 02:28:19;;;;;;;19.42;14.55;;;;;;;;;;4938975;28;20193;-85
2022/05/02 02:30:45;;;;;;;23.73;15.02;;;7.80;99.90;;;;;;4957541;28;20193;-85
2022/05/02 02:33:11;;;;;;;23.80;15.63;;;;;;;;;;4945724;28;20745;-86
2022/05/02 02:35:37;;;;;;;24.75;15.60;;;7.80;99.90;;;;;;4958104;28;20184;-82
2022/05/02 02:38:03;;;;;;;22.03;13.63;;;7.90;99.90;;;;;;4957029;28;20188;-85
2022/05/02 02:40:29;;;;;;;23.97;15.67;;;8.00;99.90;;;;;;4959798;28;20199;-85
2022/05/02 02:42:55;;;;;;;22.38;16.00;;;;;;;;;;4944806;28;20187;-85
2022/05/02 02:45:22;;;;;;;23.57;16.90;;;;;;;;;;4961539;28;20189;-87
2022/05/02 02:47:48;;;;;;;23.38;15.85;;;;;;;;;;4943059;28;20455;-86
2022/05/02 02:50:14;;;;;;;29.27;18.07;;;;;;;;;;4948473;28;20192;-85
2022/05/02 02:52:40;;;;;;;26.77;17.00;;;;;;;;;;4957347;28;20450;-84
2022/05/02 02:55:06;;;;;;;21.70;16.35;;;7.90;99.90;;;;;;4943686;28;20451;-82
2022/05/02 02:57:33;;;;;;;32.00;19.43;;;;;;;;;;4954035;28;20221;-85
2022/05/02 02:59:59;;;;;;;31.15;19.65;;;;;;;;;;4960157;28;20468;-85
2022/05/02 03:02:25;;;;;;;40.45;22.02;;;7.90;99.90;;;;;;4961567;28;20186;-85
2022/05/02 03:07:36;;;;;;;31.88;21.42;;;8.00;99.90;;;;;;4963945;28;20215;-87
2022/05/02 03:10:01;;;;;;;35.80;22.40;;;;;;;;;;4963678;28;20215;-87
2022/05/02 03:12:27;;;;;;;36.57;24.00;;;;;;;;;;4957479;28;20204;-87
2022/05/02 03:14:53;;;;;;;34.63;22.97;;;;;;;;;;4959082;28;20439;-88
2022/05/02 03:17:19;;;;;;;35.10;22.50;;;;;;;;;;4964833;28;20517;-85
2022/05/02 03:19:45;;;;;;;35.30;22.85;;;;;;;;;;4946217;28;20439;-87
2022/05/02 03:22:11;;;;;;;37.30;20.60;;;;;;;;;;4947613;28;20209;-85
2022/05/02 03:24:38;;;;;;;32.00;20.90;;;;;;;;;;4945956;28;20460;-84
2022/05/02 03:27:04;;;;;;;35.88;23.50;;;8.20;99.90;;;;;;4955541;28;20448;-84
2022/05/02 03:29:30;;;;;;;33.03;22.50;;;8.30;99.90;;;;;;4942689;28;20820;-85
2022/05/02 03:31:55;;;;;;;32.50;20.70;;;8.40;99.90;;;;;;4946217;28;20197;-85
2022/05/02 03:34:21;;;;;;;38.10;23.73;;;8.50;99.90;;;;;;4946335;28;20203;-84
2022/05/02 03:36:47;;;;;;;33.80;22.20;;;;;;;;;;4942485;28;20204;-84
2022/05/02 03:39:12;;;;;;;29.57;21.27;;;8.70;99.90;;;;;;4955842;28;20591;-86
2022/05/02 03:41:38;;;;;;;30.27;21.77;;;;;;;;;;4957705;28;20471;-84
2022/05/02 03:44:04;;;;;;;31.73;19.87;;;8.80;99.90;;;;;;4940581;28;20184;-86
2022/05/02 03:46:30;;;;;;;36.53;22.00;;;;;;;;;;4946194;28;20509;-86
2022/05/02 03:48:57;;;;;;;30.47;20.70;;;;;;;;;;4955778;28;20219;-86
2022/05/02 03:51:23;;;;;;;30.60;21.15;;;;;;;;;;4942771;28;20889;-86
2022/05/02 03:53:49;;;;;;;30.73;21.87;;;;;;;;;;4942593;28;20216;-85
2022/05/02 03:56:15;;;;;;;31.73;21.50;;;;;;;;;;4942850;28;20475;-86
2022/05/02 03:58:41;;;;;;;27.20;18.67;;;;;;;;;;4959709;28;20260;-86
2022/05/02 04:01:07;;;;;;;25.17;19.43;;;;;;;;;;4957511;28;20516;-86
2022/05/02 04:03:33;;;;;;;30.35;19.73;;;;;;;;;;4942755;28;20440;-86
2022/05/02 04:05:59;;;;;;;27.20;18.17;;;;;;;;;;4957919;28;20662;-87
2022/05/02 04:08:25;;;;;;;31.87;20.53;;;;;;;;;;4942854;28;20436;-86
2022/05/02 04:10:51;;;;;;;31.13;21.43;;;;;;;;;;4940758;28;21360;-85
2022/05/02 04:13:17;;;;;;;26.73;18.50;;;;;;;;;;4943603;28;20436;-88
2022/05/02 04:15:43;;;;;;;21.67;16.93;;;;;;;;;;4959367;28;20453;-85
2022/05/02 04:18:09;;;;;;;29.30;18.93;;;;;;;;;;4957295;28;20438;-84
2022/05/02 04:20:35;;;;;;;32.27;18.80;;;;;;;;;;4939660;28;20467;-85
2022/05/02 04:23:00;;;;;;;26.83;20.70;;;;;;;;;;4944495;28;20522;-84
2022/05/02 04:25:26;;;;;;;25.60;18.20;;;;;;;;;;4954850;28;20431;-84
2022/05/02 04:27:52;;;;;;;25.17;19.20;;;;;;;;;;4953328;28;20614;-86
2022/05/02 04:30:18;;;;;;;25.57;19.30;;;;;;;;;;4962860;28;20459;-85
2022/05/02 04:32:44;;;;;;;31.97;19.47;;;;;;;;;;4945326;28;20462;-85
2022/05/02 04:35:10;;;;;;;25.83;18.20;;;;;;;;;;4945141;28;20440;-85
2022/05/02 04:37:37;;;;;;;20.63;15.60;;;11.00;99.90;;;;;;4944757;28;20740;-86
2022/05/02 04:40:03;;;;;;;19.67;15.45;;;11.00;99.90;;;;;;4953242;28;20437;-84
2022/05/02 04:42:29;;;;;;;20.58;16.70;;;;;;;;;;4951594;28;20565;-85
2022/05/02 04:44:55;;;;;;;24.27;15.90;;;;;;;;;;4933116;28;20191;-86
2022/05/02 04:47:21;;;;;;;26.23;17.03;;;;;;;;;;4958759;28;20200;-88
2022/05/02 04:49:47;;;;;;;27.73;17.93;;;;;;;;;;4939933;29;20424;-88
2022/05/02 04:52:13;;;;;;;25.47;18.07;;;;;;;;;;4965119;28;20492;-84
2022/05/02 04:54:39;;;;;;;23.45;17.75;;;;;;;;;;4940840;28;20443;-85
2022/05/02 04:57:05;;;;;;;24.53;18.30;;;;;;;;;;4954880;28;20212;-85
2022/05/02 04:59:31;;;;;;;25.45;18.33;;;;;;;;;;4943308;28;20487;-87
2022/05/02 05:01:58;;;;;;;34.23;18.27;;;;;;;;;;4935342;28;20211;-83
2022/05/02 05:04:24;;;;;;;21.55;16.45;;;;;;;;;;4957610;28;20885;-84
2022/05/02 05:06:50;;;;;;;21.75;16.60;;;;;;;;;;4956980;28;20188;-85
2022/05/02 05:09:16;;;;;;;25.07;15.90;;;;;;;;;;4951289;28;20295;-85
2022/05/02 05:12:19;;;;;;;20.67;16.77;;;10.60;99.90;;;;;;4942762;28;20462;-84
2022/05/02 05:18:34;;;;;;;22.55;16.15;;;10.50;99.90;;;;;;4950465;28;20384;-85
2022/05/02 05:21:04;;;;;;;25.48;18.67;;;10.70;99.90;;;;;;4954992;28;20697;-85
2022/05/02 05:24:08;;;;;;;24.58;17.67;;;11.10;99.90;;;;;;4936540;28;20684;-84
2022/05/02 05:26:51;;;;;;;22.30;17.98;;;11.10;99.90;;;;;;4955462;28;20593;-85
2022/05/02 05:29:38;;;;;;;22.90;16.55;;;11.90;99.90;;;;;;4936649;28;20761;-85
2022/05/02 05:32:29;;;;;;;23.73;16.70;;;12.30;99.90;;;;;;4943040;28;20222;-85
2022/05/02 05:35:04;;;;;;;23.60;16.75;;;12.80;99.90;;;;;;4949711;28;22730;-85
2022/05/02 05:38:00;;;;;;;26.15;15.85;;;13.20;99.90;;;;;;4960771;28;20208;-85
2022/05/02 05:40:33;;;;;;;20.13;15.90;;;13.20;99.90;;;;;;4952779;28;20193;-85
2022/05/02 05:43:11;;;;;;;17.73;14.68;;;13.80;99.90;;;;;;4938520;28;20243;-84
2022/05/02 05:46:01;;;;;;;22.63;15.67;;;14.20;99.90;;;;;;4950506;28;20280;-85
2022/05/02 05:48:32;;;;;;;18.10;15.13;;;14.70;99.90;;;;;;4942242;28;21003;-85
2022/05/02 05:51:15;;;;;;;24.00;15.70;;;15.10;99.90;;;;;;4949973;28;20472;-85
2022/05/02 05:53:56;;;;;;;17.93;14.83;;;15.60;99.90;;;;;;4943153;28;20443;-86
2022/05/02 05:56:23;;;;;;;19.33;15.40;;;;;;;;;;4951570;28;20480;-85
2022/05/02 05:59:13;;;;;;;19.40;15.30;;;17.60;99.90;;;;;;4938387;28;20471;-85
2022/05/02 06:02:16;;;;;;;18.17;14.33;;;19.00;99.90;;;;;;4951520;28;20460;-84
2022/05/02 06:04:47;;;;;;;15.77;13.93;;;19.50;99.90;;;;;;4953583;28;20427;-85
2022/05/02 06:07:13;;;;;;;22.07;16.03;;;;;;;;;;4957571;28;20473;-85
2022/05/02 06:09:39;;;;;;;17.90;15.43;;;;;;;;;;4947272;28;20449;-84
2022/05/02 06:12:05;;;;;;;19.90;15.20;;;;;;;;;;4959325;28;20467;-85
2022/05/02 06:18:27;;;;;;;17.60;15.27;;;23.20;99.90;;;;;;4953138;28;20439;-85
2022/05/02 06:20:16;;;;;;;15.77;14.17;;;25.90;98.60;;;;;;4951033;28;20447;-85
2022/05/02 06:22:42;;;;;;;18.90;14.57;;;25.00;97.50;;;;;;4956481;28;20508;-85
2022/05/02 06:25:09;;;;;;;16.20;14.50;;;24.10;96.00;;;;;;4943083;28;20464;-85
2022/05/02 06:27:35;;;;;;;18.23;16.23;;;;;;;;;;4945657;28;20173;-85
2022/05/02 06:30:03;;;;;;;17.83;14.20;;;22.10;98.80;;;;;;4953741;28;20448;-84
2022/05/02 06:32:30;;;;;;;22.03;14.60;;;21.00;99.90;;;;;;4936677;28;20946;-84
2022/05/02 06:34:56;;;;;;;17.97;15.03;;;;;;;;;;4948687;28;20451;-84
2022/05/02 06:37:40;;;;;;;18.23;14.03;;;20.00;99.90;;;;;;4963217;28;20467;-84
2022/05/02 06:40:05;;;;;;;18.00;14.77;;;19.40;99.90;;;;;;4959925;28;20437;-85
2022/05/02 06:42:42;;;;;;;22.20;16.07;;;19.40;99.90;;;;;;4942283;28;20451;-85
2022/05/02 06:45:08;;;;;;;17.63;14.50;;;;;;;;;;4948337;28;20452;-84
2022/05/02 06:47:34;;;;;;;19.30;16.07;;;;;;;;;;4952789;28;20438;-85
2022/05/02 06:50:04;;;;;;;20.27;15.20;;;19.10;99.90;;;;;;4951464;28;20450;-85
2022/05/02 06:52:40;;;;;;;17.10;15.13;;;19.30;99.90;;;;;;4938239;28;20444;-84
2022/05/02 06:55:19;;;;;;;25.67;14.93;;;19.30;99.90;;;;;;4952102;28;21023;-85
2022/05/02 06:57:57;;;;;;;16.23;14.50;;;20.20;99.90;;;;;;4933362;28;21137;-84
2022/05/02 07:00:23;;;;;;;17.13;14.07;;;;;;;;;;4944430;28;20447;-85
2022/05/02 07:03:25;;;;;;;16.00;14.30;;;22.80;99.90;;;;;;4926235;28;20471;-85
2022/05/02 07:06:37;;;;;;;15.53;13.90;;;23.90;99.90;;;;;;4940899;28;20443;-85
2022/05/02 07:09:09;;;;;;;19.63;14.10;;;25.60;96.20;;;;;;4951421;28;21032;-85
2022/05/02 07:11:57;;;;;;;17.17;15.37;;;26.60;93.60;;;;;;4950866;28;20455;-85
2022/05/02 07:14:46;;;;;;;15.90;13.93;;;26.00;91.40;;;;;;4950559;28;20440;-86
2022/05/02 07:17:34;;;;;;;17.70;13.80;;;26.30;92.90;;;;;;4922491;28;21235;-85
2022/05/02 07:20:04;;;;;;;15.17;13.60;;;26.50;96.60;;;;;;4950464;28;20558;-86
2022/05/02 07:22:36;;;;;;;21.90;15.67;;;25.90;90.90;;;;;;4939389;28;20467;-85
2022/05/02 07:25:13;;;;;;;15.03;13.43;;;27.00;91.40;;;;;;4932487;28;21916;-85
2022/05/02 07:28:18;;;;;;;17.33;15.47;;;29.00;87.30;;;;;;4944057;28;22368;-85
2022/05/02 07:30:46;;;;;;;17.43;15.83;;;29.70;75.10;;;;;;4925816;28;20795;-86
2022/05/02 07:33:12;;;;;;;19.53;17.40;;;28.30;75.80;;;;;;4924998;28;20499;-85
2022/05/02 07:35:40;;;;;;;18.43;15.80;;;26.60;77.40;;;;;;4931870;28;20466;-86
2022/05/02 07:38:06;;;;;;;18.97;16.93;;;;;;;;;;4930767;28;20544;-87
2022/05/02 07:40:33;;;;;;;19.53;17.50;;;24.40;84.30;;;;;;4931081;28;20950;-86
2022/05/02 07:43:00;;;;;;;18.17;16.30;;;22.30;90.00;;;;;;4923908;28;20451;-84
2022/05/02 07:45:30;;;;;;;19.40;17.37;;;21.00;94.30;;;;;;4933281;28;20491;-85
2022/05/02 07:48:04;;;;;;;20.40;15.00;;;21.10;99.90;;;;;;4948244;28;20580;-85
2022/05/02 07:50:30;;;;;;;20.43;18.27;;;;;;;;;;4951587;28;20565;-85
2022/05/02 07:52:58;;;;;;;21.53;19.23;;;20.70;99.90;;;;;;4954280;28;20444;-86
2022/05/02 07:55:24;;;;;;;19.53;16.90;;;20.50;99.90;;;;;;4951735;28;20443;-87
2022/05/02 07:57:51;;;;;;;18.80;16.80;;;20.80;99.90;;;;;;4950843;28;20474;-86
2022/05/02 08:00:17;;;;;;;22.73;16.70;;;;;;;;;;4946427;28;20433;-85
2022/05/02 08:02:44;;;;;;;28.93;16.50;;;;;;;;;;4941872;28;20705;-85
2022/05/02 08:05:10;;;;;;;19.80;17.07;;;19.10;99.90;;;;;;4950402;28;20440;-86
2022/05/02 08:07:41;;;;;;;20.33;17.47;;;19.30;99.90;;;;;;4935770;28;20450;-85
2022/05/02 08:10:33;;;;;;;22.90;19.00;;;19.20;99.90;;;;;;4939428;28;20444;-84
2022/05/02 08:13:05;;;;;;;33.00;19.00;;;20.10;99.90;;;;;;4952142;28;20439;-85
2022/05/02 08:16:05;;;;;;;21.40;15.57;;;21.40;99.90;;;;;;4952418;28;20447;-85
2022/05/02 08:18:56;;;;;;;19.73;16.13;;;22.70;99.90;;;;;;4954823;28;20451;-86
2022/05/02 08:21:22;;;;;;;25.33;19.47;;;;;;;;;;4940093;28;20453;-85
2022/05/02 08:27:15;;;;;;;19.93;17.83;;;22.50;99.90;;;;;;4950979;28;20475;-85
2022/05/02 08:30:06;;;;;;;22.07;17.73;;;23.80;99.30;;;;;;4947749;28;20452;-84
2022/05/02 08:32:56;;;;;;;20.47;16.10;;;26.30;94.00;;;;;;4931742;28;20621;-85
2022/05/02 08:35:34;;;;;;;17.37;15.10;;;28.80;85.20;;;;;;4936113;28;20455;-84
2022/05/02 08:38:00;;;;;;;18.97;15.70;;;;;;;;;;4930057;28;20473;-84
2022/05/02 08:40:26;;;;;;;21.87;14.50;;;;;;;;;;4927468;29;20456;-86
2022/05/02 08:43:57;;;;;;;16.60;14.73;;;30.80;75.50;;;;;;4947102;28;20445;-85
2022/05/02 08:46:43;;;;;;;22.73;18.30;;;31.20;67.90;;;;;;4876889;29;20525;-85
2022/05/02 08:51:54;;;;;;;21.13;19.07;;;;;;;;;;4946184;28;20486;-85
2022/05/02 08:55:07;;;;;;;20.53;18.40;;;28.30;72.90;;;;;;4955416;28;20441;-85
2022/05/02 08:57:39;;;;;;;22.10;19.50;;;28.20;74.70;;;;;;4897041;29;20475;-87
2022/05/02 09:00:11;;;;;;;22.90;20.63;;;27.40;70.80;;;;;;4942174;28;20442;-87
2022/05/02 09:02:58;;;;;;;21.10;19.00;;;27.40;92.80;;;;;;4952745;28;21058;-87
2022/05/02 09:05:44;;;;;;;18.93;17.10;;;28.60;70.90;;;;;;4959446;28;20516;-86
2022/05/02 09:08:39;;;;;;;23.13;19.53;;;29.30;68.20;;;;;;4944555;28;20645;-86
2022/05/02 09:11:32;;;;;;;21.00;19.10;;;29.50;65.50;;;;;;4950596;28;20453;-87
2022/05/02 09:14:00;;;;;;;20.67;18.60;;;30.00;70.50;;;;;;4937860;29;20492;-86
2022/05/02 09:17:05;;;;;;;21.63;19.33;;;29.70;80.60;;;;;;4955111;28;20580;-86
2022/05/02 09:19:31;;;;;;;21.73;19.47;;;;;;;;;;4953112;28;20437;-85
2022/05/02 09:22:28;;;;;;;22.93;20.77;;;29.20;66.60;;;;;;4941588;28;20498;-85
2022/05/02 09:25:00;;;;;;;21.90;19.77;;;29.20;63.90;;;;;;4954467;28;20472;-85
2022/05/02 09:27:42;;;;;;;21.93;19.80;;;29.30;62.10;;;;;;4955484;28;20445;-85
2022/05/02 09:30:42;;;;;;;22.30;19.53;;;30.30;61.50;;;;;;4936136;28;20462;-85
2022/05/02 09:33:08;;;;;;;21.40;19.13;;;;;;;;;;4937996;28;20439;-86
2022/05/02 09:35:46;;;;;;;20.37;18.13;;;30.40;59.20;;;;;;4932106;28;20457;-86
2022/05/02 09:38:25;;;;;;;22.07;20.10;;;30.60;59.70;;;;;;4953718;28;20495;-86
2022/05/02 09:40:59;;;;;;;21.60;19.67;;;30.10;59.20;;;;;;4954742;28;20472;-84
2022/05/02 09:49:33;;;;;;;21.43;19.23;;;31.10;83.30;;;;;;4958617;28;20433;-86
2022/05/02 09:52:17;;;;;;;23.23;21.33;;;32.00;53.40;;;;;;4956316;28;20492;-85
2022/05/02 09:58:16;;;;;;;21.37;19.60;;;30.70;56.60;;;;;;4952502;28;20536;-85
2022/05/02 10:01:11;;;;;;;23.27;20.83;;;29.80;64.50;;;;;;4952261;28;20537;-86
2022/05/02 10:04:14;;;;;;;21.93;19.87;;;28.60;56.80;;;;;;4931107;28;20697;-86
2022/05/02 10:06:46;;;;;;;21.20;19.10;;;27.50;57.90;;;;;;4922020;28;20442;-86
2022/05/02 10:09:41;;;;;;;21.63;19.40;;;28.50;58.40;;;;;;4933000;28;20444;-86
2022/05/02 10:12:40;;;;;;;20.60;18.00;;;29.60;55.60;;;;;;4953612;28;20468;-85
2022/05/02 10:15:09;;;;;;;19.10;17.40;;;30.30;55.10;;;;;;4948971;28;20445;-85
2022/05/02 10:18:08;;;;;;;20.03;18.27;;;29.80;55.20;;;;;;4952279;28;20545;-86
2022/05/02 10:20:51;;;;;;;21.60;19.40;;;28.80;55.70;;;;;;4956885;28;20453;-86
2022/05/02 10:23:42;;;;;;;19.53;17.83;;;28.30;58.20;;;;;;4937615;28;20440;-85
2022/05/02 10:26:38;;;;;;;19.77;17.90;;;28.20;58.70;;;;;;4950709;28;20434;-84
2022/05/02 10:29:19;;;;;;;19.90;18.03;;;26.50;58.30;;;;;;4933415;28;20520;-86
2022/05/02 10:31:50;;;;;;;19.33;17.37;;;24.60;68.20;;;;;;4946313;28;20553;-86
2022/05/02 10:34:20;;;;;;;16.93;15.17;;;24.40;62.20;;;;;;4942577;28;20447;-87
2022/05/02 10:36:50;;;;;;;19.23;16.50;;;23.70;64.80;;;;;;4950772;28;20511;-85
2022/05/02 10:39:32;;;;;;;18.07;15.13;;;23.80;67.10;;;;;;4940741;28;20440;-84
2022/05/02 10:41:58;;;;;;;20.47;14.90;;;23.00;67.60;;;;;;4954372;28;20494;-84
2022/05/02 10:44:48;;;;;;;15.67;14.07;;;22.60;69.50;;;;;;4940555;28;20495;-85
2022/05/02 10:47:17;;;;;;;17.80;15.70;;;22.20;72.80;;;;;;4940842;28;20929;-84
2022/05/02 10:49:43;;;;;;;16.13;13.30;;;;;;;;;;4949185;28;20440;-84
2022/05/02 10:52:49;;;;;;;20.93;14.73;;;22.40;77.00;;;;;;4949232;28;20468;-85
2022/05/02 10:55:27;;;;;;;16.90;15.10;;;22.90;77.70;;;;;;4952371;28;20447;-84
2022/05/02 10:57:57;;;;;;;17.00;14.57;;;23.10;78.90;;;;;;4932391;28;20486;-84
2022/05/02 11:00:24;;;;;;;17.53;14.80;;;;;;;;;;4948611;28;20502;-85
2022/05/02 11:03:24;;;;;;;16.30;14.17;;;23.90;75.00;;;;;;4917393;28;20448;-85
2022/05/02 11:06:18;;;;;;;15.90;13.70;;;23.90;77.50;;;;;;4928698;28;20433;-85
2022/05/02 11:08:44;;;;;;;15.50;13.90;;;;;;;;;;4945788;28;20448;-85
2022/05/02 11:11:21;;;;;;;19.90;14.60;;;22.70;82.20;;;;;;4948005;28;20558;-86
2022/05/02 11:14:03;;;;;;;15.83;14.00;;;22.00;73.50;;;;;;4954099;28;20432;-86
2022/05/02 11:16:43;;;;;;;17.83;14.47;;;22.20;82.10;;;;;;4947199;28;20476;-86
2022/05/02 11:22:39;;;;;;;13.70;12.00;;;22.30;75.70;;;;;;4955017;28;20434;-87
2022/05/02 11:25:08;;;;;;;15.73;12.13;;;;;;;;;;4944944;28;20503;-86
2022/05/02 11:27:52;;;;;;;19.27;11.70;;;22.10;72.20;;;;;;4945496;28;20444;-86
2022/05/02 11:30:22;;;;;;;14.57;11.97;;;22.80;75.30;;;;;;4941946;28;20436;-86
2022/05/02 11:33:12;;;;;;;16.20;13.03;;;23.00;71.90;;;;;;4927777;28;20453;-86
2022/05/02 11:35:39;;;;;;;16.93;12.37;;;23.10;70.60;;;;;;4925547;28;20449;-86
2022/05/02 11:38:54;;;;;;;15.80;11.80;;;23.30;72.70;;;;;;4945503;28;20463;-86
2022/05/02 11:41:22;;;;;;;13.97;10.00;;;22.90;70.90;;;;;;4880380;29;20519;-86
2022/05/02 11:43:49;;;;;;;20.17;11.47;;;22.80;71.80;;;;;;4852505;29;20532;-86
2022/05/02 11:46:18;;;;;;;13.33;11.20;;;;;;;;;;4905812;28;20531;-86
2022/05/02 11:48:55;;;;;;;11.83;10.20;;;22.40;75.70;;;;;;4930860;28;20880;-87
2022/05/02 11:51:42;;;;;;;12.50;10.13;;;23.30;75.80;;;;;;4934368;28;20462;-85
2022/05/02 11:54:31;;;;;;;12.03;9.63;;;23.90;72.20;;;;;;4949404;28;20444;-85
2022/05/02 11:57:17;;;;;;;13.77;9.57;;;23.90;66.40;;;;;;4942715;28;20542;-85
2022/05/02 12:00:03;;;;;;;11.30;10.10;;;24.30;69.20;;;;;;4948853;28;20469;-86
2022/05/02 12:02:37;;;;;;;11.60;9.60;;;24.70;68.40;;;;;;4953520;28;20437;-87
2022/05/02 12:05:15;;;;;;;11.20;8.17;;;25.00;65.80;;;;;;4921813;28;20443;-86
2022/05/02 12:07:41;;;;;;;11.33;9.17;;;;;;;;;;4946932;28;20790;-86
2022/05/02 12:10:09;;;;;;;9.53;8.27;;;24.60;63.00;;;;;;4929061;28;20444;-87
2022/05/02 12:12:36;;;;;;;8.73;7.67;;;;;;;;;;4931495;28;20719;-89
2022/05/02 12:15:12;;;;;;;10.50;9.37;;;24.20;78.00;;;;;;4953601;28;20757;-88
2022/05/02 12:17:50;;;;;;;8.80;8.00;;;23.60;66.70;;;;;;4928206;28;20456;-88
2022/05/02 12:20:42;;;;;;;13.50;10.20;;;24.10;74.00;;;;;;4933804;28;20469;-89
2022/05/02 12:23:20;;;;;;;13.60;9.87;;;24.10;71.20;;;;;;4939626;28;20447;-85
2022/05/02 12:25:51;;;;;;;11.20;10.10;;;24.60;67.20;;;;;;4944058;28;20438;-87
2022/05/02 12:28:19;;;;;;;11.30;10.10;;;23.70;70.20;;;;;;4922538;28;20432;-87
2022/05/02 12:30:52;;;;;;;11.13;9.87;;;24.00;70.00;;;;;;4932602;28;20480;-87
2022/05/02 12:33:20;;;;;;;9.03;7.77;;;24.10;65.80;;;;;;4926930;28;21759;-89
2022/05/02 12:35:46;;;;;;;7.13;6.43;;;23.70;63.90;;;;;;4924383;28;20508;-88
2022/05/02 12:38:24;;;;;;;7.67;6.70;;;23.10;63.60;;;;;;4944638;28;20587;-88
2022/05/02 12:41:01;;;;;;;11.57;7.63;;;23.00;64.00;;;;;;4948980;28;20505;-87
2022/05/02 12:43:40;;;;;;;8.67;7.87;;;23.30;66.90;;;;;;4927819;28;20435;-87
2022/05/02 12:46:10;;;;;;;8.97;8.07;;;22.80;69.90;;;;;;4928817;28;20460;-87
2022/05/02 12:48:41;;;;;;;8.33;7.43;;;22.50;72.30;;;;;;4934688;28;20835;-89
2022/05/02 12:51:14;;;;;;;8.30;7.43;;;22.20;70.00;;;;;;4944697;28;20459;-87
2022/05/02 12:56:24;;;;;;;11.03;7.40;;;21.10;72.60;;;;;;4945980;28;21334;-88
2022/05/02 13:01:43;;;;;;;8.00;7.20;;;21.50;71.80;;;;;;4943446;28;20226;-87
2022/05/02 13:04:17;;;;;;;7.57;6.87;;;21.80;74.80;;;;;;4942731;28;20430;-88
2022/05/02 13:06:44;;;;;;;6.77;6.03;;;21.70;70.70;;;;;;4930760;28;20448;-87
2022/05/02 13:09:14;;;;;;;7.63;6.83;;;21.60;68.40;;;;;;4946753;28;20974;-87
2022/05/02 13:11:40;;;;;;;6.30;5.70;;;;;;;;;;4924092;28;20476;-87
2022/05/02 13:14:06;;;;;;;7.90;7.07;;;21.90;72.00;;;;;;4921972;28;20445;-88
2022/05/02 13:16:43;;;;;;;6.67;6.07;;;22.00;70.50;;;;;;4947672;28;20467;-88
2022/05/02 13:19:10;;;;;;;7.07;6.37;;;22.50;69.80;;;;;;4947940;28;20450;-87
2022/05/02 13:21:37;;;;;;;6.77;6.13;;;;;;;;;;4938853;28;20459;-86
2022/05/02 13:24:09;;;;;;;6.50;5.90;;;23.70;67.90;;;;;;4956205;28;20494;-86
2022/05/02 13:26:50;;;;;;;8.40;6.50;;;23.70;69.10;;;;;;4949670;28;20443;-87
2022/05/02 13:29:39;;;;;;;7.53;6.13;;;24.00;67.50;;;;;;4952679;28;20449;-87
2022/05/02 13:32:13;;;;;;;6.07;5.47;;;23.70;74.50;;;;;;4947075;28;20459;-87
2022/05/02 13:34:39;;;;;;;8.17;6.23;;;;;;;;;;4931578;28;20444;-87
2022/05/02 13:37:13;;;;;;;8.93;6.40;;;23.40;67.20;;;;;;4955227;28;20477;-85
2022/05/02 13:39:51;;;;;;;8.63;5.80;;;23.50;65.80;;;;;;4951205;28;20471;-85
2022/05/02 13:42:51;;;;;;;5.73;5.23;;;23.90;80.50;;;;;;4934735;28;21001;-87
2022/05/02 13:45:54;;;;;;;5.90;5.30;;;23.50;63.10;;;;;;4952963;28;21024;-85
2022/05/02 13:48:31;;;;;;;5.60;5.10;;;23.40;63.70;;;;;;4885930;28;20446;-86
2022/05/02 13:51:19;;;;;;;7.83;7.03;;;23.30;62.60;;;;;;4936491;28;20446;-86
2022/05/02 13:53:57;;;;;;;6.63;5.80;;;23.40;62.80;;;;;;4949243;28;20443;-88
2022/05/02 13:56:29;;;;;;;7.20;5.20;;;23.20;70.20;;;;;;4949196;28;21099;-86
2022/05/02 13:59:14;;;;;;;7.60;5.77;;;22.90;61.70;;;;;;4946236;28;20503;-86
2022/05/02 14:02:13;;;;;;;7.23;6.33;;;22.70;64.10;;;;;;4931564;28;20834;-86
2022/05/02 14:04:42;;;;;;;6.07;5.47;;;22.60;66.20;;;;;;4928705;28;20538;-86
2022/05/02 14:07:13;;;;;;;9.40;6.40;;;22.20;77.20;;;;;;4933083;28;20442;-87
2022/05/02 14:09:54;;;;;;;7.10;6.23;;;22.40;66.00;;;;;;4949145;28;21225;-85
2022/05/02 14:12:22;;;;;;;6.50;5.60;;;22.30;68.60;;;;;;4925554;28;20500;-87